Time;durP1;ratioP1;P1;durP2;ratioP2;P2;SDS_P1;SDS_P2;PMS_P1;PMS_P2;Temp;Humidity;BMP_temperature;BMP_pressure;BME280_temperature;BME280_humidity;BME280_pressure;Samples;Min_cycle;Max_cycle;Signal;HPM_P1;HPM_P2
2023/07/13 00:04:15;;;;;;;6.78;2.65;;;;;;;16.73;60.62;100184.91;10201923;29;20040;-76
2023/07/13 00:09:19;;;;;;;5.45;2.40;;;;;;;17.00;60.12;100191.84;10191282;29;20127;-75
2023/07/13 00:14:24;;;;;;;6.32;2.45;;;;;;;16.98;60.08;100196.59;10206808;29;20043;-76
2023/07/13 00:19:27;;;;;;;5.05;2.33;;;;;;;17.00;59.86;100204.53;10204171;29;20051;-77
2023/07/13 00:24:31;;;;;;;6.28;2.45;;;;;;;16.98;60.30;100209.31;10205178;29;20044;-76
2023/07/13 00:29:35;;;;;;;7.15;2.70;;;;;;;16.94;60.14;100210.66;10215995;29;20051;-75
2023/07/13 00:34:38;;;;;;;8.15;2.53;;;;;;;16.86;60.39;100214.19;10217404;29;21517;-75
2023/07/13 00:39:41;;;;;;;4.15;2.45;;;;;;;16.88;60.19;100214.88;10216822;29;20080;-75
2023/07/13 00:45:04;;;;;;;5.85;2.92;;;;;;;16.81;60.68;100214.72;10210530;29;20035;-76
2023/07/13 00:50:10;;;;;;;4.60;2.58;;;;;;;16.83;60.48;100216.41;10196885;29;20411;-75
2023/07/13 00:55:15;;;;;;;3.40;2.88;;;;;;;16.94;60.29;100211.50;10206145;28;20043;-76
2023/07/13 01:00:22;;;;;;;5.07;2.55;;;;;;;16.93;60.18;100212.53;10205417;29;20044;-76
2023/07/13 01:05:26;;;;;;;3.35;2.15;;;;;;;17.00;59.99;100210.84;10221788;29;20119;-75
2023/07/13 01:10:29;;;;;;;8.18;3.30;;;;;;;17.08;60.23;100198.25;10210153;29;20045;-76
2023/07/13 01:15:40;;;;;;;5.32;2.60;;;;;;;17.07;60.47;100210.16;10211055;29;20048;-76
2023/07/13 01:20:51;;;;;;;6.28;2.85;;;;;;;16.95;60.72;100201.47;10219501;28;20058;-75
2023/07/13 01:25:55;;;;;;;4.47;2.60;;;;;;;16.91;60.91;100205.56;10201396;29;20044;-75
2023/07/13 01:30:59;;;;;;;6.20;2.92;;;;;;;17.04;60.69;100211.34;10201006;29;20083;-75
2023/07/13 01:36:07;;;;;;;6.45;2.55;;;;;;;16.52;62.34;100208.94;10205203;29;20048;-77
2023/07/13 01:41:10;;;;;;;5.60;2.53;;;;;;;16.72;61.76;100199.44;10205096;29;20043;-75
2023/07/13 01:46:13;;;;;;;7.93;2.67;;;;;;;16.57;62.59;100203.88;10206567;29;20122;-76
2023/07/13 01:51:26;;;;;;;10.15;2.47;;;;;;;16.94;60.91;100214.19;10199854;29;20071;-75
2023/07/13 01:56:29;;;;;;;3.33;2.08;;;;;;;16.90;60.95;100226.44;10198339;29;20056;-75
2023/07/13 02:01:32;;;;;;;4.82;2.78;;;;;;;16.91;61.34;100214.53;10203769;29;20147;-76
2023/07/13 02:06:37;;;;;;;6.13;2.83;;;;;;;16.83;63.04;100214.53;10193544;29;20039;-75
2023/07/13 02:11:40;;;;;;;7.00;3.10;;;;;;;16.74;63.66;100221.00;10198188;29;20437;-76
2023/07/13 02:16:42;;;;;;;8.32;3.05;;;;;;;16.67;63.40;100218.09;10192595;29;20495;-76
2023/07/13 02:21:47;;;;;;;3.55;2.90;;;;;;;16.69;63.02;100217.94;10199088;29;20062;-76
2023/07/13 02:26:51;;;;;;;8.40;2.83;;;;;;;16.67;63.11;100220.81;10201565;29;20070;-76
2023/07/13 02:31:55;;;;;;;7.13;3.25;;;;;;;16.71;63.08;100224.06;10210976;28;20071;-76
2023/07/13 02:37:00;;;;;;;7.88;3.53;;;;;;;16.61;63.28;100217.94;10222195;29;20055;-76
2023/07/13 02:42:04;;;;;;;4.90;3.13;;;;;;;16.52;63.74;100219.78;10191463;29;20474;-76
2023/07/13 02:47:08;;;;;;;4.63;2.95;;;;;;;16.44;63.53;100211.63;10199435;29;20059;-75
2023/07/13 02:52:13;;;;;;;8.10;3.70;;;;;;;16.32;63.50;100217.38;10215041;28;20047;-76
2023/07/13 02:57:15;;;;;;;7.90;3.50;;;;;;;16.28;63.63;100217.88;10196382;29;20048;-76
2023/07/13 03:02:18;;;;;;;13.48;3.40;;;;;;;16.25;63.52;100221.72;10197105;29;20056;-76
2023/07/13 03:07:23;;;;;;;8.50;3.72;;;;;;;16.24;63.69;100227.31;10198070;29;20464;-75
2023/07/13 03:12:27;;;;;;;8.82;3.33;;;;;;;16.21;63.67;100227.63;10208700;28;20043;-77
2023/07/13 03:17:31;;;;;;;8.65;3.72;;;;;;;16.18;64.49;100228.84;10203362;29;20056;-76
2023/07/13 03:22:35;;;;;;;10.93;3.47;;;;;;;16.03;65.28;100236.72;10207061;29;20051;-76
2023/07/13 03:27:38;;;;;;;7.80;3.45;;;;;;;15.96;65.64;100232.97;10219682;28;20091;-77
2023/07/13 03:32:43;;;;;;;7.50;3.20;;;;;;;15.96;65.52;100249.22;10202290;29;20063;-76
2023/07/13 03:37:48;;;;;;;6.75;3.25;;;;;;;15.64;66.15;100242.63;10209806;29;20040;-75
2023/07/13 03:42:55;;;;;;;9.20;4.40;;;;;;;15.77;66.09;100242.22;10209480;29;20048;-75
2023/07/13 03:47:58;;;;;;;7.72;3.70;;;;;;;15.76;66.45;100247.78;10201422;29;20135;-76
2023/07/13 03:53:03;;;;;;;10.13;3.60;;;;;;;15.80;66.28;100246.47;10221738;28;20043;-76
2023/07/13 03:58:28;;;;;;;11.63;3.60;;;;;;;15.65;66.85;100257.88;10194021;29;20143;-76
2023/07/13 04:03:36;;;;;;;7.57;4.28;;;;;;;15.51;67.21;100253.06;10198713;29;20055;-76
2023/07/13 04:08:40;;;;;;;8.60;4.25;;;;;;;15.44;67.65;100260.09;10206373;29;20067;-75
2023/07/13 04:13:43;;;;;;;7.18;4.43;;;;;;;15.36;67.89;100258.22;10201079;29;20071;-75
2023/07/13 04:18:48;;;;;;;6.93;4.25;;;;;;;15.39;67.19;100267.88;10207954;29;20095;-76
2023/07/13 04:23:52;;;;;;;11.15;4.78;;;;;;;15.54;66.76;100260.84;10208526;28;20134;-75
2023/07/13 04:28:55;;;;;;;12.82;4.35;;;;;;;15.46;65.89;100269.75;10195745;29;20062;-75
2023/07/13 04:33:58;;;;;;;7.50;3.33;;;;;;;15.64;65.53;100269.72;10197192;29;20054;-77
2023/07/13 04:39:03;;;;;;;4.22;2.38;;;;;;;15.40;65.28;100277.69;10201411;29;20514;-75
2023/07/13 04:44:05;;;;;;;10.05;3.70;;;;;;;15.09;66.67;100285.38;10230023;28;20040;-75
2023/07/13 04:49:08;;;;;;;6.90;3.13;;;;;;;15.14;65.99;100286.59;10202256;29;20621;-75
2023/07/13 04:54:13;;;;;;;8.90;3.03;;;;;;;15.45;64.80;100284.31;10211195;29;20040;-75
2023/07/13 04:59:15;;;;;;;10.77;2.63;;;;;;;15.43;63.92;100280.06;10227158;29;20056;-75
2023/07/13 05:04:18;;;;;;;11.75;3.00;;;;;;;15.37;63.85;100284.25;10210752;29;20507;-75
2023/07/13 05:09:23;;;;;;;7.13;2.60;;;;;;;15.45;63.51;100294.28;10190751;29;20042;-75
2023/07/13 05:14:26;;;;;;;10.98;3.33;;;;;;;15.55;62.93;100294.19;10219649;28;20131;-76
2023/07/13 05:19:29;;;;;;;14.23;2.38;;;;;;;15.75;62.23;100305.66;10204626;29;20043;-76
2023/07/13 05:24:33;;;;;;;15.23;2.10;;;;;;;15.44;62.38;100293.44;10203136;29;20163;-76
2023/07/13 05:29:36;;;;;;;9.07;2.70;;;;;;;15.81;61.99;100297.72;10216339;28;20135;-76
2023/07/13 05:34:39;;;;;;;7.43;2.47;;;;;;;15.72;62.18;100298.72;10196307;29;20064;-76
2023/07/13 05:39:43;;;;;;;5.78;2.03;;;;;;;15.36;62.46;100306.94;10198178;29;20515;-77
2023/07/13 05:44:46;;;;;;;7.32;2.33;;;;;;;15.73;61.81;100315.81;10198663;29;20047;-76
2023/07/13 05:49:49;;;;;;;6.85;1.80;;;;;;;15.80;61.14;100314.16;10199504;29;20059;-76
2023/07/13 05:54:53;;;;;;;8.02;1.73;;;;;;;15.83;61.27;100313.84;10192324;29;20117;-76
2023/07/13 05:59:56;;;;;;;6.85;2.00;;;;;;;15.76;62.11;100326.31;10191992;29;20055;-76
2023/07/13 06:04:59;;;;;;;13.93;2.85;;;;;;;15.73;61.92;100319.34;10203892;29;20067;-76
2023/07/13 06:10:03;;;;;;;6.30;2.03;;;;;;;15.59;62.32;100328.06;10205232;29;20071;-75
2023/07/13 06:15:08;;;;;;;3.25;1.67;;;;;;;15.58;61.98;100329.09;10205917;29;20027;-76
2023/07/13 06:20:11;;;;;;;6.95;2.85;;;;;;;15.90;62.42;100326.56;10207903;29;20466;-76
2023/07/13 06:25:17;;;;;;;13.48;3.17;;;;;;;16.00;62.06;100325.59;10206188;29;20388;-77
2023/07/13 06:30:20;;;;;;;9.48;1.63;;;;;;;15.80;62.55;100330.41;10208938;29;20058;-76
2023/07/13 06:35:23;;;;;;;7.35;2.28;;;;;;;16.66;61.01;100329.47;10204219;29;20040;-75
2023/07/13 06:40:28;;;;;;;12.00;2.55;;;;;;;16.74;60.76;100343.88;10205630;29;20098;-77
2023/07/13 06:45:41;;;;;;;11.63;2.40;;;;;;;17.36;59.84;100343.50;10204950;29;20050;-76
2023/07/13 06:50:44;;;;;;;5.95;2.97;;;;;;;16.78;61.78;100342.56;10228061;29;20636;-76
2023/07/13 06:55:49;;;;;;;11.55;2.50;;;;;;;16.71;62.39;100352.38;10215284;29;20091;-76
2023/07/13 07:00:53;;;;;;;8.68;3.33;;;;;;;16.91;62.63;100342.06;10219111;28;20058;-76
2023/07/13 07:06:01;;;;;;;10.50;3.33;;;;;;;17.51;61.25;100354.53;10210864;29;20566;-75
2023/07/13 07:11:05;;;;;;;11.50;3.10;;;;;;;17.66;60.70;100357.38;10210249;29;20051;-76
2023/07/13 07:16:08;;;;;;;12.43;2.58;;;;;;;16.91;61.29;100363.75;10209002;29;20046;-77
2023/07/13 07:21:12;;;;;;;11.27;2.60;;;;;;;17.02;61.69;100362.59;10212044;29;20499;-76
2023/07/13 07:26:16;;;;;;;10.30;2.55;;;;;;;16.72;62.36;100374.91;10207862;29;20050;-77
2023/07/13 07:31:25;;;;;;;7.30;2.97;;;;;;;17.87;60.32;100348.72;10208190;29;20043;-77
2023/07/13 07:36:31;;;;;;;5.63;2.58;;;;;;;18.18;58.15;100370.56;10208304;29;20043;-77
2023/07/13 07:41:38;;;;;;;6.68;2.10;;;;;;;19.39;54.61;100345.63;10211526;29;20565;-77
2023/07/13 07:46:44;;;;;;;8.75;3.25;;;;;;;19.61;54.50;100348.50;10208112;29;20047;-78
2023/07/13 07:51:47;;;;;;;10.57;3.03;;;;;;;19.07;54.90;100346.69;10210525;29;20048;-76
2023/07/13 07:56:52;;;;;;;7.40;2.20;;;;;;;18.51;56.97;100371.31;10209485;29;20123;-77
2023/07/13 08:01:57;;;;;;;7.22;2.55;;;;;;;19.12;55.84;100363.34;10207519;29;20051;-76
2023/07/13 08:07:03;;;;;;;9.55;2.47;;;;;;;19.08;55.23;100359.28;10209455;29;20036;-77
2023/07/13 08:12:08;;;;;;;12.25;3.83;;;;;;;18.61;56.87;100364.81;10204626;29;20419;-76
2023/07/13 08:17:14;;;;;;;10.65;3.38;;;;;;;19.30;55.78;100360.31;10208717;29;20036;-76
2023/07/13 08:22:17;;;;;;;5.38;2.30;;;;;;;19.88;54.55;100357.94;10207293;29;20058;-77
2023/07/13 08:27:22;;;;;;;7.68;2.55;;;;;;;20.56;53.23;100364.19;10207081;29;20502;-79
2023/07/13 08:32:25;;;;;;;6.72;2.47;;;;;;;20.83;51.29;100384.47;10204337;29;20492;-77
2023/07/13 08:37:28;;;;;;;6.75;2.10;;;;;;;19.79;53.94;100383.59;10212390;29;20035;-77
2023/07/13 08:42:38;;;;;;;8.70;2.30;;;;;;;20.11;52.66;100369.63;10208907;29;20058;-76
2023/07/13 08:47:45;;;;;;;5.80;1.90;;;;;;;20.91;50.56;100373.44;10206976;29;20039;-76
2023/07/13 08:52:49;;;;;;;5.25;2.03;;;;;;;20.26;51.65;100369.63;10214218;29;20437;-76
2023/07/13 08:58:00;;;;;;;12.27;3.17;;;;;;;20.03;52.37;100361.53;10220750;29;20052;-77
2023/07/13 09:03:04;;;;;;;4.47;2.58;;;;;;;20.06;51.29;100363.06;10209241;29;20057;-76
2023/07/13 09:08:26;;;;;;;4.65;1.90;;;;;;;20.63;50.00;100358.81;10210464;29;20099;-77
2023/07/13 09:13:41;;;;;;;4.40;1.40;;;;;;;20.72;49.15;100383.06;10201187;29;20051;-76
2023/07/13 09:18:49;;;;;;;8.15;2.47;;;;;;;20.85;49.41;100373.38;10203028;29;20068;-77
2023/07/13 09:23:55;;;;;;;4.85;2.47;;;;;;;20.89;48.61;100353.66;10205720;29;20035;-76
2023/07/13 09:29:10;;;;;;;7.25;3.00;;;;;;;21.11;48.53;100370.09;10207557;29;20113;-77
2023/07/13 09:34:14;;;;;;;4.88;2.15;;;;;;;20.95;49.07;100362.97;10207866;29;20050;-77
2023/07/13 09:39:27;;;;;;;3.78;2.53;;;;;;;20.55;48.60;100357.03;10207083;29;20525;-77
2023/07/13 09:44:35;;;;;;;5.45;2.67;;;;;;;20.92;49.39;100369.66;10205895;29;20051;-76
2023/07/13 09:49:38;;;;;;;6.57;2.90;;;;;;;20.08;50.37;100371.91;10205778;29;20095;-77
2023/07/13 09:54:48;;;;;;;4.57;2.85;;;;;;;19.70;50.33;100363.75;10208842;29;20055;-76
2023/07/13 09:59:56;;;;;;;4.00;2.00;;;;;;;20.28;48.55;100380.34;10211482;29;20049;-77
2023/07/13 10:05:01;;;;;;;3.75;1.85;;;;;;;20.85;47.27;100373.38;10205799;29;20411;-76
2023/07/13 10:10:04;;;;;;;3.97;1.83;;;;;;;22.26;44.98;100377.19;10219796;28;20047;-75
2023/07/13 10:15:17;;;;;;;5.00;2.38;;;;;;;21.84;45.97;100371.66;10207431;29;20048;-77
2023/07/13 10:20:27;;;;;;;3.33;1.88;;;;;;;23.08;43.44;100365.34;10199603;29;20388;-77
2023/07/13 10:25:33;;;;;;;6.80;2.42;;;;;;;22.88;44.12;100368.03;10203384;29;20050;-78
2023/07/13 10:30:43;;;;;;;3.22;1.75;;;;;;;22.53;43.96;100379.03;10194912;29;20044;-77
2023/07/13 10:35:48;;;;;;;3.88;1.90;;;;;;;23.27;42.85;100373.84;10206297;29;20052;-78
2023/07/13 10:40:58;;;;;;;4.68;2.05;;;;;;;21.59;45.04;100389.50;10199126;29;20040;-77
2023/07/13 10:46:04;;;;;;;6.95;1.75;;;;;;;21.50;45.30;100387.91;10194777;29;20055;-77
2023/07/13 10:51:08;;;;;;;6.03;2.33;;;;;;;22.36;44.23;100383.13;10201025;29;20063;-76
2023/07/13 10:56:24;;;;;;;5.10;2.65;;;;;;;20.85;47.61;100397.94;10201319;29;20135;-76
2023/07/13 11:01:40;;;;;;;4.07;2.58;;;;;;;22.41;45.04;100390.75;10213188;29;20412;-75
2023/07/13 11:06:49;;;;;;;4.32;2.20;;;;;;;22.77;42.95;100383.16;10209488;29;20056;-76
2023/07/13 11:11:52;;;;;;;6.97;2.80;;;;;;;21.63;45.15;100385.31;10200950;29;20044;-77
2023/07/13 11:16:57;;;;;;;5.25;3.22;;;;;;;22.53;45.01;100395.47;10204007;29;20056;-76
2023/07/13 11:22:12;;;;;;;3.40;2.85;;;;;;;22.76;43.19;100414.34;10205157;29;20056;-76
2023/07/13 11:27:35;;;;;;;7.75;3.22;;;;;;;22.93;43.13;100401.13;10205776;29;20127;-77
2023/07/13 11:32:40;;;;;;;5.75;2.58;;;;;;;21.39;44.38;100376.50;10206808;29;20082;-77
2023/07/13 11:37:43;;;;;;;4.13;2.55;;;;;;;22.41;42.57;100390.75;10209443;29;20067;-77
2023/07/13 11:42:46;;;;;;;6.13;3.60;;;;;;;22.72;43.19;100371.13;10208596;29;20389;-77
2023/07/13 11:47:50;;;;;;;5.25;3.85;;;;;;;21.32;46.19;100389.25;10202001;29;20055;-78
2023/07/13 11:52:56;;;;;;;4.93;4.07;;;;;;;20.92;48.71;100394.22;10207238;29;20044;-77
2023/07/13 11:58:03;;;;;;;8.00;4.57;;;;;;;21.59;47.42;100390.34;10210302;29;20081;-76
2023/07/13 12:03:07;;;;;;;7.72;3.80;;;;;;;23.14;42.28;100380.97;10205239;29;20418;-76
2023/07/13 12:08:11;;;;;;;5.30;3.15;;;;;;;23.48;41.73;100381.88;10195883;29;20139;-76
2023/07/13 12:13:27;;;;;;;5.70;2.85;;;;;;;24.44;40.70;100388.81;10201768;29;20119;-76
2023/07/13 12:18:34;;;;;;;4.13;2.92;;;;;;;24.92;39.84;100356.28;10191234;29;20040;-77
2023/07/13 12:23:37;;;;;;;3.58;2.10;;;;;;;24.61;39.61;100380.94;10200633;29;20054;-76
2023/07/13 12:28:46;;;;;;;4.68;2.47;;;;;;;23.15;41.75;100370.88;10209110;29;20055;-77
2023/07/13 12:33:57;;;;;;;7.22;3.90;;;;;;;22.10;44.09;100398.34;10207102;29;20059;-76
2023/07/13 12:39:05;;;;;;;7.47;4.10;;;;;;;21.76;44.98;100390.94;10201875;29;20131;-77
2023/07/13 12:44:12;;;;;;;6.90;3.80;;;;;;;23.13;43.06;100373.81;10206083;29;20042;-78
2023/07/13 12:49:17;;;;;;;3.90;3.33;;;;;;;23.97;41.16;100366.94;10207630;29;20044;-77
2023/07/13 12:54:21;;;;;;;5.40;2.70;;;;;;;22.73;42.17;100376.38;10207756;29;20042;-77
2023/07/13 12:59:25;;;;;;;5.32;2.47;;;;;;;23.06;41.17;100392.09;10205342;28;20050;-76
2023/07/13 13:04:31;;;;;;;3.17;2.45;;;;;;;22.62;41.87;100384.34;10211569;29;20054;-76
2023/07/13 13:09:34;;;;;;;6.93;3.25;;;;;;;23.09;41.85;100377.13;10226700;29;20501;-77
2023/07/13 13:14:37;;;;;;;4.30;2.63;;;;;;;22.07;42.59;100378.75;10207797;29;20054;-78
2023/07/13 13:19:41;;;;;;;6.43;2.30;;;;;;;22.02;42.54;100394.91;10203822;29;20154;-76
2023/07/13 13:24:44;;;;;;;5.30;2.03;;;;;;;22.68;41.67;100397.22;10203573;29;20062;-78
2023/07/13 13:29:50;;;;;;;2.35;2.15;;;;;;;22.69;41.09;100409.88;10189736;29;20103;-77
2023/07/13 13:34:54;;;;;;;5.00;2.42;;;;;;;22.57;41.98;100406.84;10205553;29;20052;-76
2023/07/13 13:39:57;;;;;;;4.50;2.10;;;;;;;22.16;42.76;100413.13;10204985;29;20071;-76
2023/07/13 13:45:12;;;;;;;3.25;1.40;;;;;;;20.05;48.30;100424.09;10201988;29;20527;-77
2023/07/13 13:50:19;;;;;;;10.95;2.50;;;;;;;20.49;51.78;100451.41;10201884;29;20135;-76
2023/07/13 13:55:24;;;;;;;7.55;2.00;;;;;;;19.49;52.71;100494.31;10196769;29;20495;-77
2023/07/13 14:00:27;;;;;;;4.10;2.45;;;;;;;18.27;58.68;100504.63;10188480;29;20043;-77
2023/07/13 14:05:31;;;;;;;6.75;3.28;;;;;;;16.65;74.15;100512.16;10198364;29;20039;-77
2023/07/13 14:10:34;;;;;;;6.63;3.97;;;;;;;15.70;81.13;100507.38;10198892;29;20504;-79
2023/07/13 14:15:37;;;;;;;6.78;4.82;;;;;;;16.10;83.01;100497.06;10199271;29;20047;-78
2023/07/13 14:20:41;;;;;;;10.38;4.65;;;;;;;16.90;85.17;100489.59;10205722;29;20388;-78
2023/07/13 14:25:44;;;;;;;5.40;4.40;;;;;;;17.02;82.62;100496.41;10199845;29;20051;-77
2023/07/13 14:30:47;;;;;;;5.97;3.97;;;;;;;18.03;86.72;100497.34;10187181;29;20047;-77
2023/07/13 14:35:52;;;;;;;5.93;4.18;;;;;;;17.84;80.26;100512.06;10201585;29;20044;-76
2023/07/13 14:40:56;;;;;;;6.55;4.10;;;;;;;17.30;78.29;100533.34;10194671;29;20072;-78
2023/07/13 14:45:59;;;;;;;5.97;3.85;;;;;;;17.34;78.81;100526.59;10193708;29;20067;-77
2023/07/13 14:51:03;;;;;;;4.88;3.80;;;;;;;17.03;75.76;100544.25;10188994;29;20131;-77
2023/07/13 14:56:11;;;;;;;6.70;4.10;;;;;;;16.75;76.54;100556.31;10205755;29;20056;-78
2023/07/13 15:01:16;;;;;;;2.13;1.83;;;;;;;16.71;69.68;100558.50;10202079;29;20048;-78
2023/07/13 15:06:21;;;;;;;2.83;2.10;;;;;;;16.35;71.50;100555.88;10197969;29;20048;-78
2023/07/13 15:11:24;;;;;;;4.97;2.70;;;;;;;16.32;74.00;100549.94;10227422;29;20035;-78
2023/07/13 15:16:27;;;;;;;5.43;2.90;;;;;;;16.72;71.54;100554.75;10208712;29;20055;-78
2023/07/13 15:21:34;;;;;;;7.55;3.22;;;;;;;15.78;72.86;100557.22;10212099;29;20071;-77
2023/07/13 15:26:38;;;;;;;7.53;3.80;;;;;;;16.24;75.10;100556.09;10206438;29;20127;-77
2023/07/13 15:31:42;;;;;;;4.22;3.83;;;;;;;16.37;73.45;100555.69;10204445;29;20078;-77
2023/07/13 15:36:46;;;;;;;4.85;3.40;;;;;;;16.18;72.21;100553.16;10210204;29;20076;-78
2023/07/13 15:41:50;;;;;;;4.45;3.67;;;;;;;16.29;72.35;100551.09;10208194;29;20513;-78
2023/07/13 15:46:53;;;;;;;9.48;3.50;;;;;;;16.46;70.98;100548.50;10219238;29;20047;-77
2023/07/13 15:51:58;;;;;;;6.28;3.63;;;;;;;16.32;71.44;100553.50;10210238;29;20059;-76
2023/07/13 15:57:03;;;;;;;7.80;4.60;;;;;;;16.22;71.24;100539.13;10195390;29;20051;-77
2023/07/13 16:02:14;;;;;;;4.88;4.25;;;;;;;16.38;71.22;100540.31;10201504;29;20047;-77
2023/07/13 16:07:19;;;;;;;5.20;4.15;;;;;;;16.51;70.34;100544.31;10204500;29;20051;-76
2023/07/13 16:12:22;;;;;;;6.80;4.65;;;;;;;16.76;69.45;100539.03;10202571;29;20043;-76
2023/07/13 16:17:25;;;;;;;7.78;4.13;;;;;;;16.95;68.79;100540.63;10212545;29;20479;-77
2023/07/13 16:22:30;;;;;;;5.22;3.65;;;;;;;17.23;67.34;100546.75;10215538;29;20430;-76
2023/07/13 16:27:33;;;;;;;4.82;4.38;;;;;;;17.62;66.44;100546.16;10203996;29;20465;-77
2023/07/13 16:32:37;;;;;;;7.32;4.22;;;;;;;18.13;64.20;100539.63;10207256;29;20059;-77
2023/07/13 16:37:41;;;;;;;7.28;3.92;;;;;;;19.28;61.03;100543.97;10207943;29;20747;-76
2023/07/13 16:43:04;;;;;;;5.57;3.58;;;;;;;19.86;57.66;100540.78;10207063;29;20542;-79
2023/07/13 16:48:14;;;;;;;4.85;3.33;;;;;;;22.98;51.96;100537.44;10218657;29;20043;-79
2023/07/13 16:53:21;;;;;;;4.97;3.85;;;;;;;21.73;49.60;100538.06;10227473;29;20054;-80
2023/07/13 16:58:25;;;;;;;5.78;3.97;;;;;;;20.17;54.54;100537.09;10221563;29;20058;-79
2023/07/13 17:03:29;;;;;;;4.88;3.38;;;;;;;19.50;57.28;100537.75;10225829;29;20720;-79
2023/07/13 17:08:33;;;;;;;6.50;3.63;;;;;;;19.18;58.50;100539.59;10223451;29;20042;-79
2023/07/13 17:13:36;;;;;;;5.75;3.20;;;;;;;22.92;50.73;100536.34;10233735;29;20044;-77
2023/07/13 17:18:39;;;;;;;4.45;2.92;;;;;;;27.60;40.09;100518.78;10246796;29;20047;-78
2023/07/13 17:23:44;;;;;;;4.15;3.08;;;;;;;28.78;38.01;100524.50;10222699;29;20422;-77
2023/07/13 17:28:47;;;;;;;3.95;2.53;;;;;;;30.02;35.79;100527.59;10208499;29;20119;-78
2023/07/13 17:33:51;;;;;;;3.10;2.67;;;;;;;29.75;35.05;100534.84;10209936;29;20404;-77
2023/07/13 17:38:56;;;;;;;5.32;2.88;;;;;;;29.96;35.82;100533.31;10207352;29;20056;-77
2023/07/13 17:44:01;;;;;;;5.22;2.50;;;;;;;29.03;35.57;100524.22;10209998;29;20062;-76
2023/07/13 17:49:05;;;;;;;4.63;3.00;;;;;;;27.83;37.75;100538.16;10206356;29;20114;-77
2023/07/13 17:54:14;;;;;;;3.08;2.70;;;;;;;24.00;43.08;100533.00;10225301;28;20066;-77
2023/07/13 17:59:17;;;;;;;4.30;2.75;;;;;;;20.53;50.68;100537.31;10209332;29;20047;-77
2023/07/13 18:04:22;;;;;;;4.45;2.63;;;;;;;19.30;54.72;100558.25;10208071;29;20396;-76
2023/07/13 18:09:29;;;;;;;5.47;3.30;;;;;;;18.64;57.42;100558.44;10206221;29;20043;-77
2023/07/13 18:14:35;;;;;;;3.20;2.90;;;;;;;18.26;58.18;100565.44;10203558;29;20392;-76
2023/07/13 18:19:41;;;;;;;5.20;3.38;;;;;;;18.34;58.50;100571.72;10199644;29;20048;-77
2023/07/13 18:24:46;;;;;;;6.30;3.47;;;;;;;18.14;59.78;100571.22;10206224;29;20059;-77
2023/07/13 18:29:50;;;;;;;4.95;3.10;;;;;;;17.89;60.50;100567.63;10203894;29;20046;-78
2023/07/13 18:34:52;;;;;;;4.43;3.17;;;;;;;17.69;62.07;100571.66;10208833;29;20427;-77
2023/07/13 18:39:58;;;;;;;6.93;3.25;;;;;;;17.49;65.87;100571.06;10227557;28;20048;-78
2023/07/13 18:45:00;;;;;;;4.00;3.20;;;;;;;17.19;66.52;100572.50;10216380;29;20058;-77
2023/07/13 18:50:12;;;;;;;4.50;3.35;;;;;;;17.13;66.86;100576.72;10216295;29;20036;-77
2023/07/13 18:55:19;;;;;;;5.37;3.43;;;;;;;17.28;66.38;100567.94;10210372;29;20115;-77
2023/07/13 19:00:26;;;;;;;4.32;3.55;;;;;;;17.38;66.69;100583.09;10208793;29;20051;-78
2023/07/13 19:05:32;;;;;;;3.60;3.20;;;;;;;17.24;67.56;100575.56;10207808;29;20056;-77
2023/07/13 19:10:57;;;;;;;3.85;3.50;;;;;;;17.01;67.46;100570.69;10208678;29;20701;-76
2023/07/13 19:16:00;;;;;;;4.10;3.55;;;;;;;17.02;67.52;100579.69;10213665;29;20054;-78
2023/07/13 19:21:09;;;;;;;4.57;3.45;;;;;;;16.94;67.90;100568.78;10216959;29;20047;-79
2023/07/13 19:26:20;;;;;;;5.53;3.88;;;;;;;16.94;68.08;100576.94;10215849;29;20110;-79
2023/07/13 19:31:26;;;;;;;4.53;3.92;;;;;;;16.94;68.34;100576.94;10211786;29;20426;-77
2023/07/13 19:36:30;;;;;;;7.88;4.00;;;;;;;16.62;69.93;100574.84;10211186;29;20095;-77
2023/07/13 19:41:37;;;;;;;5.13;3.65;;;;;;;16.85;69.39;100580.63;10210248;29;20048;-77
2023/07/13 19:46:40;;;;;;;5.40;4.28;;;;;;;16.77;69.63;100584.97;10206657;29;20082;-77
2023/07/13 19:51:46;;;;;;;6.90;4.20;;;;;;;16.88;69.62;100596.56;10208351;29;20107;-77
2023/07/13 19:56:50;;;;;;;8.68;4.63;;;;;;;16.84;69.94;100597.88;10212443;29;20055;-77
2023/07/13 20:01:54;;;;;;;6.28;4.55;;;;;;;16.76;70.18;100606.84;10208218;29;20046;-76
2023/07/13 20:06:57;;;;;;;7.32;5.20;;;;;;;16.67;70.94;100621.34;10206447;29;20070;-78
2023/07/13 20:12:03;;;;;;;8.63;5.68;;;;;;;16.59;71.42;100616.69;10205164;29;20050;-77
2023/07/13 20:17:20;;;;;;;7.05;5.82;;;;;;;16.56;71.97;100617.91;10203846;29;20127;-78
2023/07/13 20:22:23;;;;;;;6.70;5.47;;;;;;;16.55;72.48;100618.03;10206829;29;20048;-77
2023/07/13 20:27:27;;;;;;;8.07;5.88;;;;;;;16.57;72.32;100616.88;10210738;29;20040;-78
2023/07/13 20:32:32;;;;;;;12.38;7.03;;;;;;;16.52;72.45;100627.34;10211439;29;20048;-78
2023/07/13 20:37:38;;;;;;;8.15;5.93;;;;;;;16.36;72.95;100633.47;10207946;29;20053;-77
2023/07/13 20:42:42;;;;;;;8.23;6.88;;;;;;;16.39;73.17;100631.47;10210626;29;20047;-78
2023/07/13 20:47:47;;;;;;;10.07;7.03;;;;;;;16.40;73.49;100638.56;10206702;29;20055;-77
2023/07/13 20:52:52;;;;;;;8.07;6.63;;;;;;;16.29;73.78;100645.97;10210352;29;20036;-77
2023/07/13 20:57:58;;;;;;;9.75;7.60;;;;;;;16.44;73.30;100654.38;10209485;29;20043;-77
2023/07/13 21:03:03;;;;;;;10.70;6.82;;;;;;;16.43;73.15;100649.09;10202867;29;20068;-77
2023/07/13 21:08:11;;;;;;;8.05;6.68;;;;;;;16.31;73.60;100660.19;10202563;29;20153;-78
2023/07/13 21:13:19;;;;;;;7.80;7.03;;;;;;;16.32;73.08;100663.78;10215830;29;20044;-77
2023/07/13 21:18:24;;;;;;;11.40;6.75;;;;;;;16.15;73.39;100655.47;10205426;29;20047;-77
2023/07/13 21:23:30;;;;;;;9.57;6.70;;;;;;;16.04;73.47;100661.06;10227713;29;20039;-77
2023/07/13 21:28:38;;;;;;;9.63;6.82;;;;;;;16.11;73.00;100648.63;10212466;29;20050;-77
2023/07/13 21:33:41;;;;;;;9.88;5.88;;;;;;;16.08;72.63;100656.22;10208622;29;20051;-77
2023/07/13 21:38:45;;;;;;;8.95;6.47;;;;;;;15.94;73.17;100657.59;10196689;29;20640;-77
2023/07/13 21:43:49;;;;;;;8.90;6.25;;;;;;;15.81;73.55;100657.97;10205429;29;20058;-77
2023/07/13 21:48:52;;;;;;;7.40;6.13;;;;;;;15.75;73.44;100660.44;10205680;29;20403;-77
2023/07/13 21:53:56;;;;;;;7.63;6.25;;;;;;;15.63;74.24;100657.06;10196583;29;20059;-77
2023/07/13 21:59:00;;;;;;;11.63;6.55;;;;;;;15.60;74.03;100660.91;10208536;29;20047;-77
2023/07/13 22:04:05;;;;;;;7.95;5.75;;;;;;;15.50;74.16;100659.28;10222793;29;20131;-77
2023/07/13 22:09:15;;;;;;;7.50;6.03;;;;;;;15.56;74.18;100655.97;10207061;29;20114;-77
2023/07/13 22:14:19;;;;;;;9.65;5.90;;;;;;;15.46;74.17;100666.84;10204553;29;20043;-77
2023/07/13 22:19:27;;;;;;;6.80;5.60;;;;;;;15.42;74.27;100666.28;10201713;29;20077;-77
2023/07/13 22:24:29;;;;;;;7.70;6.22;;;;;;;15.33;74.29;100663.56;10197377;29;20071;-77
2023/07/13 22:29:34;;;;;;;7.18;6.47;;;;;;;15.33;74.43;100669.88;10202127;29;20452;-77
2023/07/13 22:34:36;;;;;;;9.85;6.68;;;;;;;15.42;74.20;100668.16;10200681;29;20063;-77
2023/07/13 22:39:39;;;;;;;7.30;6.50;;;;;;;15.44;74.02;100666.13;10198745;29;20055;-77
2023/07/13 22:44:44;;;;;;;8.10;6.20;;;;;;;15.37;74.14;100665.88;10193148;29;20086;-77
2023/07/13 22:49:46;;;;;;;13.05;8.18;;;;;;;15.37;73.79;100665.88;10205215;29;20036;-78
2023/07/13 22:54:49;;;;;;;9.43;7.43;;;;;;;15.39;73.67;100661.19;10202183;29;20043;-78
2023/07/13 22:59:53;;;;;;;11.13;7.88;;;;;;;15.36;73.62;100675.00;10198974;29;20044;-78
2023/07/13 23:04:56;;;;;;;11.13;7.38;;;;;;;15.26;74.03;100666.88;10209168;29;20528;-78
2023/07/13 23:09:59;;;;;;;8.40;7.60;;;;;;;15.15;74.33;100660.81;10201811;29;20048;-78
2023/07/13 23:15:18;;;;;;;11.60;8.30;;;;;;;15.12;74.45;100658.41;10193425;29;20051;-78
2023/07/13 23:20:26;;;;;;;15.00;8.13;;;;;;;15.11;74.36;100667.50;10203771;29;20099;-77
2023/07/13 23:25:32;;;;;;;10.10;7.60;;;;;;;15.05;74.49;100656.25;10208706;29;20542;-77